sensor_id;sensor_type;location;lat;lon;timestamp;pressure;altitude;pressure_sealevel;temperature;humidity
76122;BME280;64853;53.200;6.080;2022-12-13T00:02:53;101229.66;;;20.21;31.19
76122;BME280;64853;53.200;6.080;2022-12-13T00:07:44;101202.75;;;19.98;31.45
76122;BME280;64853;53.200;6.080;2022-12-13T00:12:40;101231.38;;;20.12;31.18
76122;BME280;64853;53.200;6.080;2022-12-13T00:17:31;101223.13;;;20.07;31.53
76122;BME280;64853;53.200;6.080;2022-12-13T00:22:24;101220.41;;;20.02;31.39
76122;BME280;64853;53.200;6.080;2022-12-13T00:27:15;101224.88;;;19.98;31.19
76122;BME280;64853;53.200;6.080;2022-12-13T00:32:08;101225.72;;;19.93;31.45
76122;BME280;64853;53.200;6.080;2022-12-13T00:36:59;101227.09;;;19.91;31.46
76122;BME280;64853;53.200;6.080;2022-12-13T00:41:51;101227.16;;;19.85;31.68
76122;BME280;64853;53.200;6.080;2022-12-13T00:46:42;101199.66;;;19.65;31.28
76122;BME280;64853;53.200;6.080;2022-12-13T00:51:35;101212.53;;;19.80;31.28
76122;BME280;64853;53.200;6.080;2022-12-13T00:56:28;101213.38;;;19.80;31.42
76122;BME280;64853;53.200;6.080;2022-12-13T01:01:23;101204.53;;;19.78;31.69
76122;BME280;64853;53.200;6.080;2022-12-13T01:06:16;101201.75;;;19.78;31.32
76122;BME280;64853;53.200;6.080;2022-12-13T01:11:11;101200.41;;;19.76;31.37
76122;BME280;64853;53.200;6.080;2022-12-13T01:16:04;101204.84;;;19.72;31.51
76122;BME280;64853;53.200;6.080;2022-12-13T01:20:57;101202.91;;;19.72;31.49
76122;BME280;64853;53.200;6.080;2022-12-13T01:25:49;101195.75;;;19.71;31.32
76122;BME280;64853;53.200;6.080;2022-12-13T01:30:42;101198.53;;;19.71;31.37
76122;BME280;64853;53.200;6.080;2022-12-13T01:35:34;101198.53;;;19.71;31.03
76122;BME280;64853;53.200;6.080;2022-12-13T01:40:26;101193.56;;;19.68;31.41
76122;BME280;64853;53.200;6.080;2022-12-13T01:45:22;101188.03;;;19.68;31.33
76122;BME280;64853;53.200;6.080;2022-12-13T01:50:17;101191.09;;;19.66;31.53
76122;BME280;64853;53.200;6.080;2022-12-13T01:55:13;101183.09;;;19.65;30.95
76122;BME280;64853;53.200;6.080;2022-12-13T02:00:08;101184.25;;;19.59;31.34
76122;BME280;64853;53.200;6.080;2022-12-13T02:05:03;101192.47;;;19.64;31.08
76122;BME280;64853;53.200;6.080;2022-12-13T02:10:00;101172.16;;;19.49;31.22
76122;BME280;64853;53.200;6.080;2022-12-13T02:14:52;101196.91;;;19.65;30.95
76122;BME280;64853;53.200;6.080;2022-12-13T02:20:11;101188.09;;;19.63;31.18
76122;BME280;64853;53.200;6.080;2022-12-13T02:25:27;101189.19;;;19.62;31.24
76122;BME280;64853;53.200;6.080;2022-12-13T02:30:28;101188.38;;;19.61;31.21
76122;BME280;64853;53.200;6.080;2022-12-13T02:35:26;101185.31;;;19.63;30.99
76122;BME280;64853;53.200;6.080;2022-12-13T02:40:22;101189.19;;;19.62;31.34
76122;BME280;64853;53.200;6.080;2022-12-13T02:45:19;101144.06;;;19.37;30.95
76122;BME280;64853;53.200;6.080;2022-12-13T02:50:15;101187.53;;;19.61;31.17
76122;BME280;64853;53.200;6.080;2022-12-13T02:55:08;101185.31;;;19.63;31.23
76122;BME280;64853;53.200;6.080;2022-12-13T03:00:04;101188.66;;;19.60;31.03
76122;BME280;64853;53.200;6.080;2022-12-13T03:05:03;101181.19;;;19.60;31.02
76122;BME280;64853;53.200;6.080;2022-12-13T03:10:19;101184.25;;;19.59;30.87
76122;BME280;64853;53.200;6.080;2022-12-13T03:15:16;101172.09;;;19.55;31.14
76122;BME280;64853;53.200;6.080;2022-12-13T03:20:14;101177.91;;;19.58;31.04
76122;BME280;64853;53.200;6.080;2022-12-13T03:25:07;101175.94;;;19.59;30.87
76122;BME280;64853;53.200;6.080;2022-12-13T03:30:00;101174.28;;;19.58;30.96
76122;BME280;64853;53.200;6.080;2022-12-13T03:34:52;101176.25;;;19.57;30.86
76122;BME280;64853;53.200;6.080;2022-12-13T03:39:43;101176.25;;;19.57;31.10
76122;BME280;64853;53.200;6.080;2022-12-13T03:44:35;101174.00;;;19.59;30.83
76122;BME280;64853;53.200;6.080;2022-12-13T03:49:28;101172.38;;;19.58;30.80
76122;BME280;64853;53.200;6.080;2022-12-13T03:54:19;101172.09;;;19.60;30.70
76122;BME280;64853;53.200;6.080;2022-12-13T03:59:10;101156.63;;;19.59;30.68
76122;BME280;64853;53.200;6.080;2022-12-13T04:04:02;101133.25;;;19.46;30.90
76122;BME280;64853;53.200;6.080;2022-12-13T04:08:55;101151.91;;;19.59;30.47
76122;BME280;64853;53.200;6.080;2022-12-13T04:13:46;101154.38;;;19.61;30.96
76122;BME280;64853;53.200;6.080;2022-12-13T04:18:38;101144.47;;;19.60;30.65
76122;BME280;64853;53.200;6.080;2022-12-13T04:23:29;101136.75;;;19.57;30.88
76122;BME280;64853;53.200;6.080;2022-12-13T04:28:22;101137.81;;;19.61;30.66
76122;BME280;64853;53.200;6.080;2022-12-13T04:33:13;101137.75;;;19.71;30.90
76122;BME280;64853;53.200;6.080;2022-12-13T04:38:05;101134.81;;;19.86;30.71
76122;BME280;64853;53.200;6.080;2022-12-13T04:42:56;101125.91;;;20.00;30.34
76122;BME280;64853;53.200;6.080;2022-12-13T04:47:49;101119.09;;;20.16;30.38
76122;BME280;64853;53.200;6.080;2022-12-13T04:52:41;101117.25;;;20.31;30.10
76122;BME280;64853;53.200;6.080;2022-12-13T04:57:33;101088.44;;;20.37;30.50
76122;BME280;64853;53.200;6.080;2022-12-13T05:02:25;101100.91;;;20.58;30.10
76122;BME280;64853;53.200;6.080;2022-12-13T05:07:18;101092.16;;;20.70;29.84
76122;BME280;64853;53.200;6.080;2022-12-13T05:12:10;101093.69;;;20.82;30.20
76122;BME280;64853;53.200;6.080;2022-12-13T05:17:01;101091.31;;;20.94;29.69
76122;BME280;64853;53.200;6.080;2022-12-13T05:21:53;101058.78;;;20.86;30.04
76122;BME280;64853;53.200;6.080;2022-12-13T05:26:46;101056.47;;;20.93;29.95
76122;BME280;64853;53.200;6.080;2022-12-13T05:31:37;101090.56;;;21.26;29.49
76122;BME280;64853;53.200;6.080;2022-12-13T05:36:29;101091.50;;;21.36;29.82
76122;BME280;64853;53.200;6.080;2022-12-13T05:41:22;101090.56;;;21.45;29.87
76122;BME280;64853;53.200;6.080;2022-12-13T05:46:16;101088.03;;;21.49;29.52
76122;BME280;64853;53.200;6.080;2022-12-13T05:51:08;101091.03;;;21.66;29.27
76122;BME280;64853;53.200;6.080;2022-12-13T05:56:00;101093.94;;;21.75;29.24
76122;BME280;64853;53.200;6.080;2022-12-13T06:00:52;101099.59;;;21.84;29.53
76122;BME280;64853;53.200;6.080;2022-12-13T06:05:45;101101.66;;;21.92;29.39
76122;BME280;64853;53.200;6.080;2022-12-13T06:10:36;101102.63;;;22.01;28.89
76122;BME280;64853;53.200;6.080;2022-12-13T06:15:28;101075.41;;;21.90;29.24
76122;BME280;64853;53.200;6.080;2022-12-13T06:20:19;101101.22;;;22.18;29.35
76122;BME280;64853;53.200;6.080;2022-12-13T06:25:13;101101.94;;;22.24;28.82
76122;BME280;64853;53.200;6.080;2022-12-13T06:30:06;101110.06;;;22.34;29.04
76122;BME280;64853;53.200;6.080;2022-12-13T06:34:57;101116.03;;;22.41;29.09
76122;BME280;64853;53.200;6.080;2022-12-13T06:39:49;101105.66;;;22.47;28.63
76122;BME280;64853;53.200;6.080;2022-12-13T06:44:43;101096.81;;;22.45;28.64
76122;BME280;64853;53.200;6.080;2022-12-13T06:49:35;101106.38;;;22.25;28.97
76122;BME280;64853;53.200;6.080;2022-12-13T06:54:26;101108.16;;;22.01;29.11
76122;BME280;64853;53.200;6.080;2022-12-13T06:59:17;101113.19;;;21.99;29.63
76122;BME280;64853;53.200;6.080;2022-12-13T07:04:11;101105.28;;;22.07;29.66
76122;BME280;64853;53.200;6.080;2022-12-13T07:09:03;101111.44;;;22.03;29.86
76122;BME280;64853;53.200;6.080;2022-12-13T07:13:55;101113.28;;;21.94;29.79
76122;BME280;64853;53.200;6.080;2022-12-13T07:18:47;101108.97;;;21.88;29.92
76122;BME280;64853;53.200;6.080;2022-12-13T07:23:40;101111.19;;;21.86;29.97
76122;BME280;64853;53.200;6.080;2022-12-13T07:28:32;101100.72;;;21.83;29.71
76122;BME280;64853;53.200;6.080;2022-12-13T07:33:24;101114.69;;;21.78;30.30
76122;BME280;64853;53.200;6.080;2022-12-13T07:38:15;101110.34;;;21.72;30.23
76122;BME280;64853;53.200;6.080;2022-12-13T07:43:09;101111.81;;;21.69;30.29
76122;BME280;64853;53.200;6.080;2022-12-13T07:48:05;101120.72;;;21.66;30.37
76122;BME280;64853;53.200;6.080;2022-12-13T07:52:57;101136.00;;;21.63;30.37
76122;BME280;64853;53.200;6.080;2022-12-13T07:57:48;101131.06;;;21.60;30.45
76122;BME280;64853;53.200;6.080;2022-12-13T08:02:43;101134.94;;;21.59;29.95
76122;BME280;64853;53.200;6.080;2022-12-13T08:07:34;101140.28;;;21.56;29.93
76122;BME280;64853;53.200;6.080;2022-12-13T08:12:26;101140.28;;;21.56;30.59
76122;BME280;64853;53.200;6.080;2022-12-13T08:17:17;101147.25;;;21.53;30.14
76122;BME280;64853;53.200;6.080;2022-12-13T08:22:12;101148.66;;;21.51;30.48
76122;BME280;64853;53.200;6.080;2022-12-13T08:27:03;101150.09;;;21.48;30.08
76122;BME280;64853;53.200;6.080;2022-12-13T08:31:54;101158.16;;;21.44;30.55
76122;BME280;64853;53.200;6.080;2022-12-13T08:36:46;101148.47;;;21.42;30.56
76122;BME280;64853;53.200;6.080;2022-12-13T08:41:39;101157.41;;;21.39;30.08
76122;BME280;64853;53.200;6.080;2022-12-13T08:46:30;101164.38;;;21.36;30.18
76122;BME280;64853;53.200;6.080;2022-12-13T08:51:21;101173.28;;;21.33;30.13
76122;BME280;64853;53.200;6.080;2022-12-13T08:56:14;101168.94;;;21.27;30.29
76122;BME280;64853;53.200;6.080;2022-12-13T09:01:08;101172.00;;;21.25;30.40
76122;BME280;64853;53.200;6.080;2022-12-13T09:06:05;101154.56;;;21.06;30.57
76122;BME280;64853;53.200;6.080;2022-12-13T09:10:57;101168.94;;;21.08;30.76
76122;BME280;64853;53.200;6.080;2022-12-13T09:15:49;101184.28;;;21.19;30.07
76122;BME280;64853;53.200;6.080;2022-12-13T09:20:42;101182.91;;;21.17;30.27
76122;BME280;64853;53.200;6.080;2022-12-13T09:25:33;101178.59;;;21.10;30.15
76122;BME280;64853;53.200;6.080;2022-12-13T09:30:25;101190.00;;;21.04;30.66
76122;BME280;64853;53.200;6.080;2022-12-13T09:35:17;101184.47;;;21.04;30.40
76122;BME280;64853;53.200;6.080;2022-12-13T09:40:10;101176.75;;;21.01;30.14
76122;BME280;64853;53.200;6.080;2022-12-13T09:45:05;101164.13;;;20.94;30.70
76122;BME280;64853;53.200;6.080;2022-12-13T09:49:58;101168.59;;;20.90;30.40
76122;BME280;64853;53.200;6.080;2022-12-13T09:54:53;101161.41;;;20.89;30.52
76122;BME280;64853;53.200;6.080;2022-12-13T09:59:47;101162.00;;;20.86;30.50
76122;BME280;64853;53.200;6.080;2022-12-13T10:04:39;101146.56;;;20.80;30.65
76122;BME280;64853;53.200;6.080;2022-12-13T10:09:31;101139.50;;;20.69;30.96
76122;BME280;64853;53.200;6.080;2022-12-13T10:14:26;101141.41;;;20.73;30.50
76122;BME280;64853;53.200;6.080;2022-12-13T10:19:26;101134.50;;;20.71;30.85
76122;BME280;64853;53.200;6.080;2022-12-13T10:24:21;101126.25;;;20.66;30.90
76122;BME280;64853;53.200;6.080;2022-12-13T10:29:14;101121.59;;;20.61;30.34
76122;BME280;64853;53.200;6.080;2022-12-13T10:34:16;101115.25;;;20.60;30.94
76122;BME280;64853;53.200;6.080;2022-12-13T10:39:15;101094.09;;;20.51;30.99
76122;BME280;64853;53.200;6.080;2022-12-13T10:44:18;101099.84;;;20.54;30.70
76122;BME280;64853;53.200;6.080;2022-12-13T10:49:15;101094.91;;;20.51;30.67
76122;BME280;64853;53.200;6.080;2022-12-13T10:54:15;101094.91;;;20.51;30.70
76122;BME280;64853;53.200;6.080;2022-12-13T10:59:09;101100.50;;;20.46;30.74
76122;BME280;64853;53.200;6.080;2022-12-13T11:04:03;101082.25;;;20.45;30.94
76122;BME280;64853;53.200;6.080;2022-12-13T11:08:55;101080.63;;;20.44;30.97
76122;BME280;64853;53.200;6.080;2022-12-13T11:13:50;101084.78;;;20.41;31.08
76122;BME280;64853;53.200;6.080;2022-12-13T11:18:42;101085.59;;;20.42;30.84
76122;BME280;64853;53.200;6.080;2022-12-13T11:23:43;101087.03;;;20.39;31.20
76122;BME280;64853;53.200;6.080;2022-12-13T11:28:54;101088.44;;;20.37;30.92
76122;BME280;64853;53.200;6.080;2022-12-13T11:33:56;101079.03;;;20.38;31.03
76122;BME280;64853;53.200;6.080;2022-12-13T11:39:02;101072.97;;;20.36;30.80
76122;BME280;64853;53.200;6.080;2022-12-13T11:44:00;101074.09;;;20.35;30.97
76122;BME280;64853;53.200;6.080;2022-12-13T11:48:56;101065.72;;;20.40;31.06
76122;BME280;64853;53.200;6.080;2022-12-13T11:53:54;101062.88;;;20.45;31.00
76122;BME280;64853;53.200;6.080;2022-12-13T11:58:55;101055.13;;;20.47;30.97
76122;BME280;64853;53.200;6.080;2022-12-13T12:03:53;101047.94;;;20.46;31.24
76122;BME280;64853;53.200;6.080;2022-12-13T12:08:52;101034.84;;;20.33;30.87
76122;BME280;64853;53.200;6.080;2022-12-13T12:13:50;101035.53;;;20.44;31.15
76122;BME280;64853;53.200;6.080;2022-12-13T12:18:43;101035.69;;;20.52;31.16
76122;BME280;64853;53.200;6.080;2022-12-13T12:23:45;101028.59;;;20.65;30.57
76122;BME280;64853;53.200;6.080;2022-12-13T12:28:54;101032.59;;;20.78;30.68
76122;BME280;64853;53.200;6.080;2022-12-13T12:33:53;101031.88;;;20.91;30.91
76122;BME280;64853;53.200;6.080;2022-12-13T12:39:12;100977.31;;;20.73;31.41
76122;BME280;64853;53.200;6.080;2022-12-13T12:44:16;101021.88;;;21.09;30.65
76122;BME280;64853;53.200;6.080;2022-12-13T12:49:29;101029.28;;;21.14;31.12
76122;BME280;64853;53.200;6.080;2022-12-13T12:54:40;101037.09;;;21.12;31.01
76122;BME280;64853;53.200;6.080;2022-12-13T12:59:40;101041.06;;;21.06;30.99
76122;BME280;64853;53.200;6.080;2022-12-13T13:04:38;101039.56;;;20.94;30.91
76122;BME280;64853;53.200;6.080;2022-12-13T13:09:35;101041.28;;;20.90;31.69
76122;BME280;64853;53.200;6.080;2022-12-13T13:14:30;101043.88;;;20.82;31.67
76122;BME280;64853;53.200;6.080;2022-12-13T13:19:39;101028.81;;;20.69;31.66
76122;BME280;64853;53.200;6.080;2022-12-13T13:24:33;101022.84;;;20.62;31.63
76122;BME280;64853;53.200;6.080;2022-12-13T13:29:34;101015.16;;;20.58;32.05
76122;BME280;64853;53.200;6.080;2022-12-13T13:34:27;100978.50;;;20.48;32.46
76122;BME280;64853;53.200;6.080;2022-12-13T13:49:55;101018.47;;;20.80;32.81
76122;BME280;64853;53.200;6.080;2022-12-13T13:55:31;101012.13;;;20.79;32.97
76122;BME280;64853;53.200;6.080;2022-12-13T14:00:42;101019.81;;;20.82;32.33
76122;BME280;64853;53.200;6.080;2022-12-13T14:06:02;101011.50;;;20.82;32.51
76122;BME280;64853;53.200;6.080;2022-12-13T14:17:13;101014.28;;;20.82;32.75
76122;BME280;64853;53.200;6.080;2022-12-13T14:22:19;101012.63;;;20.81;32.81
76122;BME280;64853;53.200;6.080;2022-12-13T14:27:20;101008.84;;;20.72;32.88
76122;BME280;64853;53.200;6.080;2022-12-13T14:32:18;101008.41;;;20.65;32.49
76122;BME280;64853;53.200;6.080;2022-12-13T14:37:21;100998.84;;;20.57;32.88
76122;BME280;64853;53.200;6.080;2022-12-13T14:42:21;100998.38;;;20.50;32.57
76122;BME280;64853;53.200;6.080;2022-12-13T14:47:13;100994.28;;;20.47;32.83
76122;BME280;64853;53.200;6.080;2022-12-13T14:52:05;100986.03;;;20.42;32.75
76122;BME280;64853;53.200;6.080;2022-12-13T14:57:02;100988.06;;;20.36;32.91
76122;BME280;64853;53.200;6.080;2022-12-13T15:01:56;100982.31;;;20.33;33.11
76122;BME280;64853;53.200;6.080;2022-12-13T15:06:55;100977.38;;;20.30;32.50
76122;BME280;64853;53.200;6.080;2022-12-13T15:11:47;100972.66;;;20.30;32.71
76122;BME280;64853;53.200;6.080;2022-12-13T15:16:46;100968.22;;;20.29;32.77
76122;BME280;64853;53.200;6.080;2022-12-13T15:21:37;100969.38;;;20.28;32.82
76122;BME280;64853;53.200;6.080;2022-12-13T15:26:30;100979.59;;;20.28;32.82
76122;BME280;64853;53.200;6.080;2022-12-13T15:31:22;100976.31;;;20.26;33.03
76122;BME280;64853;53.200;6.080;2022-12-13T15:36:17;100974.06;;;20.28;32.99
76122;BME280;64853;53.200;6.080;2022-12-13T15:41:14;100954.69;;;20.28;33.67
76122;BME280;64853;53.200;6.080;2022-12-13T15:46:08;100956.34;;;20.29;33.65
76122;BME280;64853;53.200;6.080;2022-12-13T15:51:06;100960.78;;;20.30;33.95
76122;BME280;64853;53.200;6.080;2022-12-13T15:55:59;100972.66;;;20.30;33.86
76122;BME280;64853;53.200;6.080;2022-12-13T16:00:51;100966.00;;;20.31;33.74
76122;BME280;64853;53.200;6.080;2022-12-13T16:05:46;100956.28;;;20.34;34.07
76122;BME280;64853;53.200;6.080;2022-12-13T16:10:45;100953.50;;;20.34;34.15
76122;BME280;64853;53.200;6.080;2022-12-13T16:15:48;100948.00;;;20.34;34.09
76122;BME280;64853;53.200;6.080;2022-12-13T16:20:39;100944.63;;;20.37;33.66
76122;BME280;64853;53.200;6.080;2022-12-13T16:25:33;100941.84;;;20.37;33.92
76122;BME280;64853;53.200;6.080;2022-12-13T16:30:26;100958.16;;;20.38;33.96
76122;BME280;64853;53.200;6.080;2022-12-13T16:35:20;100946.13;;;20.48;34.75
76122;BME280;64853;53.200;6.080;2022-12-13T16:40:22;100945.38;;;20.62;35.45
76122;BME280;64853;53.200;6.080;2022-12-13T16:45:14;100948.66;;;20.64;34.44
76122;BME280;64853;53.200;6.080;2022-12-13T16:50:08;100950.91;;;20.62;34.57
76122;BME280;64853;53.200;6.080;2022-12-13T16:55:01;100940.16;;;20.60;34.64
76122;BME280;64853;53.200;6.080;2022-12-13T16:59:52;100943.22;;;20.58;34.68
76122;BME280;64853;53.200;6.080;2022-12-13T17:04:44;100933.81;;;20.59;34.93
76122;BME280;64853;53.200;6.080;2022-12-13T17:09:36;100932.88;;;20.64;35.23
76122;BME280;64853;53.200;6.080;2022-12-13T17:14:28;100935.28;;;20.71;34.48
76122;BME280;64853;53.200;6.080;2022-12-13T17:19:20;100923.56;;;20.79;34.42
76122;BME280;64853;53.200;6.080;2022-12-13T17:24:12;100922.34;;;20.85;34.13
76122;BME280;64853;53.200;6.080;2022-12-13T17:29:04;100922.75;;;20.92;33.58
76122;BME280;64853;53.200;6.080;2022-12-13T17:33:57;100922.88;;;20.87;33.45
76122;BME280;64853;53.200;6.080;2022-12-13T17:38:48;100926.44;;;20.88;33.22
76122;BME280;64853;53.200;6.080;2022-12-13T17:43:40;100928.59;;;20.91;33.59
76122;BME280;64853;53.200;6.080;2022-12-13T17:48:32;100924.22;;;20.90;32.89
76122;BME280;64853;53.200;6.080;2022-12-13T17:53:25;100921.44;;;20.90;33.01
76122;BME280;64853;53.200;6.080;2022-12-13T17:58:16;100924.22;;;20.90;32.90
76122;BME280;64853;53.200;6.080;2022-12-13T18:03:08;100914.56;;;20.87;32.82
76122;BME280;64853;53.200;6.080;2022-12-13T18:07:59;100909.22;;;20.91;32.75
76122;BME280;64853;53.200;6.080;2022-12-13T18:12:52;100906.75;;;20.89;32.71
76122;BME280;64853;53.200;6.080;2022-12-13T18:17:44;100913.44;;;20.88;32.74
76122;BME280;64853;53.200;6.080;2022-12-13T18:22:35;100909.53;;;20.89;32.81
76122;BME280;64853;53.200;6.080;2022-12-13T18:27:26;100915.59;;;20.91;32.71
76122;BME280;64853;53.200;6.080;2022-12-13T18:32:19;100913.94;;;20.90;32.47
76122;BME280;64853;53.200;6.080;2022-12-13T18:37:10;100902.06;;;20.90;33.35
76122;BME280;64853;53.200;6.080;2022-12-13T18:42:02;100899.00;;;20.91;33.80
76122;BME280;64853;53.200;6.080;2022-12-13T18:46:53;100885.38;;;20.95;33.90
76122;BME280;64853;53.200;6.080;2022-12-13T18:51:46;100885.47;;;21.04;33.95
76122;BME280;64853;53.200;6.080;2022-12-13T18:56:38;100885.91;;;21.11;34.05
76122;BME280;64853;53.200;6.080;2022-12-13T19:01:30;100879.34;;;21.21;33.96
76122;BME280;64853;53.200;6.080;2022-12-13T19:06:23;100872.41;;;21.23;34.00
76122;BME280;64853;53.200;6.080;2022-12-13T19:11:16;100873.50;;;21.22;34.09
76122;BME280;64853;53.200;6.080;2022-12-13T19:16:10;100867.38;;;21.25;33.55
76122;BME280;64853;53.200;6.080;2022-12-13T19:21:05;100865.34;;;21.31;33.61
76122;BME280;64853;53.200;6.080;2022-12-13T19:26:03;100866.44;;;21.30;34.15
76122;BME280;64853;53.200;6.080;2022-12-13T19:30:56;100860.09;;;21.29;33.92
76122;BME280;64853;53.200;6.080;2022-12-13T19:35:47;100865.09;;;21.27;33.86
76122;BME280;64853;53.200;6.080;2022-12-13T19:40:39;100864.59;;;21.25;34.31
76122;BME280;64853;53.200;6.080;2022-12-13T19:45:31;100853.50;;;21.25;34.06
76122;BME280;64853;53.200;6.080;2022-12-13T19:50:24;100847.03;;;21.16;34.20
76122;BME280;64853;53.200;6.080;2022-12-13T19:55:15;100840.25;;;21.08;34.52
76122;BME280;64853;53.200;6.080;2022-12-13T20:00:08;100835.34;;;21.05;34.80
76122;BME280;64853;53.200;6.080;2022-12-13T20:05:00;100832.38;;;21.02;34.92
76122;BME280;64853;53.200;6.080;2022-12-13T20:09:53;100825.28;;;20.95;34.95
76122;BME280;64853;53.200;6.080;2022-12-13T20:14:45;100816.47;;;20.93;34.74
76122;BME280;64853;53.200;6.080;2022-12-13T20:19:36;100807.66;;;20.91;35.11
76122;BME280;64853;53.200;6.080;2022-12-13T20:24:28;100797.59;;;20.95;35.18
76122;BME280;64853;53.200;6.080;2022-12-13T20:29:20;100798.66;;;21.00;35.01
76122;BME280;64853;53.200;6.080;2022-12-13T20:34:12;100797.50;;;21.01;35.03
76122;BME280;64853;53.200;6.080;2022-12-13T20:39:04;100788.06;;;21.02;34.96
76122;BME280;64853;53.200;6.080;2022-12-13T20:43:59;100776.50;;;21.00;34.46
76122;BME280;64853;53.200;6.080;2022-12-13T20:48:53;100757.91;;;20.86;34.74
76122;BME280;64853;53.200;6.080;2022-12-13T20:53:46;100777.81;;;21.02;34.89
76122;BME280;64853;53.200;6.080;2022-12-13T20:58:39;100779.25;;;21.00;34.45
76122;BME280;64853;53.200;6.080;2022-12-13T21:03:31;100776.78;;;20.84;34.17
76122;BME280;64853;53.200;6.080;2022-12-13T21:08:24;100774.25;;;20.69;33.98
76122;BME280;64853;53.200;6.080;2022-12-13T21:13:33;100771.78;;;20.53;34.34
76122;BME280;64853;53.200;6.080;2022-12-13T21:18:25;100765.50;;;20.48;34.29
76122;BME280;64853;53.200;6.080;2022-12-13T21:23:16;100764.16;;;20.45;33.85
76122;BME280;64853;53.200;6.080;2022-12-13T21:28:09;100758.44;;;20.41;34.12
76122;BME280;64853;53.200;6.080;2022-12-13T21:33:00;100748.28;;;20.37;33.89
76122;BME280;64853;53.200;6.080;2022-12-13T21:37:52;100751.94;;;20.32;33.46
76122;BME280;64853;53.200;6.080;2022-12-13T21:42:44;100747.31;;;20.28;33.85
76122;BME280;64853;53.200;6.080;2022-12-13T21:47:36;100750.19;;;20.22;33.53
76122;BME280;64853;53.200;6.080;2022-12-13T21:52:28;100747.50;;;20.17;33.77
76122;BME280;64853;53.200;6.080;2022-12-13T21:57:19;100733.47;;;20.14;33.48
76122;BME280;64853;53.200;6.080;2022-12-13T22:02:28;100726.38;;;20.08;33.61
76122;BME280;64853;53.200;6.080;2022-12-13T22:07:23;100731.69;;;20.04;33.13
76122;BME280;64853;53.200;6.080;2022-12-13T22:12:20;100720.97;;;19.97;33.43
76122;BME280;64853;53.200;6.080;2022-12-13T22:17:12;100731.53;;;19.95;33.02
76122;BME280;64853;53.200;6.080;2022-12-13T22:22:04;100729.66;;;19.91;33.17
76122;BME280;64853;53.200;6.080;2022-12-13T22:26:56;100723.09;;;19.86;33.37
76122;BME280;64853;53.200;6.080;2022-12-13T22:31:48;100724.81;;;19.82;33.30
76122;BME280;64853;53.200;6.080;2022-12-13T22:36:39;100713.84;;;19.77;33.07
76122;BME280;64853;53.200;6.080;2022-12-13T22:41:31;100705.72;;;19.67;33.22
76122;BME280;64853;53.200;6.080;2022-12-13T22:46:24;100701.25;;;19.71;33.31
76122;BME280;64853;53.200;6.080;2022-12-13T22:51:17;100699.38;;;19.66;33.20
76122;BME280;64853;53.200;6.080;2022-12-13T22:56:10;100683.69;;;19.62;32.92
76122;BME280;64853;53.200;6.080;2022-12-13T23:01:06;100693.69;;;19.58;33.39
76122;BME280;64853;53.200;6.080;2022-12-13T23:06:05;100689.06;;;19.53;33.00
76122;BME280;64853;53.200;6.080;2022-12-13T23:10:57;100675.84;;;19.50;32.89
76122;BME280;64853;53.200;6.080;2022-12-13T23:16:06;100679.00;;;19.43;33.05
76122;BME280;64853;53.200;6.080;2022-12-13T23:20:58;100680.72;;;19.39;33.04
76122;BME280;64853;53.200;6.080;2022-12-13T23:25:50;100682.41;;;19.35;32.98
76122;BME280;64853;53.200;6.080;2022-12-13T23:30:42;100679.16;;;19.33;32.80
76122;BME280;64853;53.200;6.080;2022-12-13T23:35:33;100678.09;;;19.29;33.20
76122;BME280;64853;53.200;6.080;2022-12-13T23:40:25;100681.44;;;19.26;32.95
76122;BME280;64853;53.200;6.080;2022-12-13T23:45:18;100671.84;;;19.23;32.68
76122;BME280;64853;53.200;6.080;2022-12-13T23:50:09;100661.66;;;19.19;32.81
76122;BME280;64853;53.200;6.080;2022-12-13T23:55:01;100656.72;;;19.15;32.68
76122;BME280;64853;53.200;6.080;2022-12-13T23:59:52;100652.59;;;19.13;32.88
